Time;durP1;ratioP1;P1;durP2;ratioP2;P2;SDS_P1;SDS_P2;PMS_P1;PMS_P2;Temp;Humidity;BMP_temperature;BMP_pressure;BME280_temperature;BME280_humidity;BME280_pressure;Samples;Min_cycle;Max_cycle;Signal;HPM_P1;HPM_P2
2024/02/06 00:01:50;;;;;;;11.63;4.80;;;9.60;99.90;;;;;;5038618;28;20035;-88
2024/02/06 00:04:16;;;;;;;14.20;5.10;;;9.60;99.90;;;;;;5046366;28;20024;-88
2024/02/06 00:06:42;;;;;;;13.35;4.07;;;9.50;99.90;;;;;;5034654;28;20024;-87
2024/02/06 00:09:11;;;;;;;13.13;5.43;;;9.50;99.90;;;;;;5039535;28;20028;-89
2024/02/06 00:11:37;;;;;;;13.13;4.80;;;9.60;99.90;;;;;;5030554;28;20105;-86
2024/02/06 00:14:03;;;;;;;13.00;4.78;;;9.60;99.90;;;;;;5036632;28;20018;-88
2024/02/06 00:16:28;;;;;;;18.08;4.60;;;9.50;99.90;;;;;;5038415;28;20506;-88
2024/02/06 00:18:54;;;;;;;11.65;4.55;;;9.50;99.90;;;;;;5044447;28;20021;-87
2024/02/06 00:21:20;;;;;;;9.63;4.55;;;9.50;99.90;;;;;;5027544;28;20111;-88
2024/02/06 00:23:45;;;;;;;20.25;4.90;;;9.50;99.90;;;;;;5034605;28;20028;-88
2024/02/06 00:26:11;;;;;;;17.33;5.57;;;9.50;99.90;;;;;;5033577;28;20673;-88
2024/02/06 00:28:37;;;;;;;18.23;5.78;;;9.50;99.90;;;;;;5039231;28;20029;-88
2024/02/06 00:31:03;;;;;;;13.05;5.10;;;9.50;99.90;;;;;;5040380;28;20026;-88
2024/02/06 00:33:28;;;;;;;12.90;5.45;;;9.50;99.90;;;;;;5036586;28;20132;-88
2024/02/06 00:35:54;;;;;;;13.32;4.97;;;9.50;99.90;;;;;;5036404;28;20513;-87
2024/02/06 00:38:19;;;;;;;9.30;5.18;;;9.50;99.90;;;;;;5036823;28;20074;-86
2024/02/06 00:40:45;;;;;;;13.98;5.78;;;9.50;99.90;;;;;;5050379;28;20024;-88
2024/02/06 00:43:11;;;;;;;13.13;6.18;;;9.50;99.90;;;;;;5042261;28;20025;-88
2024/02/06 00:45:36;;;;;;;15.68;5.93;;;9.50;99.90;;;;;;5033047;28;20060;-88
2024/02/06 00:48:02;;;;;;;14.65;5.45;;;9.50;99.90;;;;;;5035519;28;20039;-87
2024/02/06 00:50:28;;;;;;;14.98;6.57;;;9.50;99.90;;;;;;5036267;28;20029;-89
2024/02/06 00:52:54;;;;;;;12.50;5.43;;;9.50;99.90;;;;;;5036272;28;20026;-88
2024/02/06 00:55:20;;;;;;;19.77;6.05;;;9.50;99.90;;;;;;5043184;28;20025;-87
2024/02/06 00:57:45;;;;;;;21.13;6.20;;;9.50;99.90;;;;;;5040100;28;20029;-88
2024/02/06 01:00:11;;;;;;;18.30;6.07;;;9.50;99.90;;;;;;5041292;28;20132;-88
2024/02/06 01:02:37;;;;;;;20.27;6.15;;;9.50;99.90;;;;;;5044873;28;20541;-87
2024/02/06 01:05:03;;;;;;;12.57;6.10;;;9.50;99.90;;;;;;5038722;28;20030;-88
2024/02/06 01:07:29;;;;;;;16.80;5.82;;;9.50;99.90;;;;;;5034165;28;20534;-88
2024/02/06 01:09:55;;;;;;;11.57;5.05;;;9.50;99.90;;;;;;5036675;28;20028;-89
2024/02/06 01:12:21;;;;;;;12.93;6.35;;;9.50;99.90;;;;;;5043132;28;20028;-88
2024/02/06 01:14:46;;;;;;;13.45;6.35;;;9.50;99.90;;;;;;5042557;28;20030;-90
2024/02/06 01:17:12;;;;;;;13.90;6.13;;;9.50;99.90;;;;;;5033161;28;20029;-88
2024/02/06 01:19:38;;;;;;;13.63;5.88;;;9.50;99.90;;;;;;5035780;28;20030;-88
2024/02/06 01:22:03;;;;;;;18.05;5.50;;;9.50;99.90;;;;;;5046536;28;20025;-87
2024/02/06 01:24:29;;;;;;;14.70;6.47;;;9.50;99.90;;;;;;5038006;28;20109;-89
2024/02/06 01:26:54;;;;;;;14.30;5.72;;;9.50;99.90;;;;;;5043058;28;20048;-89
2024/02/06 01:29:20;;;;;;;14.27;5.88;;;9.50;99.90;;;;;;5037065;28;20028;-88
2024/02/06 01:31:46;;;;;;;16.65;6.40;;;9.50;99.90;;;;;;5035517;28;20056;-89
2024/02/06 01:34:12;;;;;;;20.17;6.05;;;9.50;99.90;;;;;;5036414;28;20442;-88
2024/02/06 01:36:38;;;;;;;13.75;6.00;;;9.50;99.90;;;;;;5038503;28;20025;-89
2024/02/06 01:39:04;;;;;;;13.48;6.38;;;9.50;99.90;;;;;;5042367;28;20032;-87
2024/02/06 01:41:30;;;;;;;13.07;6.32;;;9.50;99.90;;;;;;5042428;28;20407;-89
2024/02/06 01:43:55;;;;;;;22.48;6.93;;;9.50;99.90;;;;;;5039561;28;20039;-88
2024/02/06 01:46:21;;;;;;;16.38;7.28;;;9.50;99.90;;;;;;5042339;28;20025;-88
2024/02/06 01:48:47;;;;;;;19.92;6.38;;;9.50;99.90;;;;;;5037193;28;20014;-87
2024/02/06 01:51:16;;;;;;;14.40;5.70;;;9.50;99.90;;;;;;5044834;28;20025;-89
2024/02/06 01:53:42;;;;;;;12.55;5.70;;;9.50;99.90;;;;;;5030035;28;20083;-88
2024/02/06 01:56:08;;;;;;;11.23;5.95;;;9.50;99.90;;;;;;5041243;28;20116;-88
2024/02/06 01:58:34;;;;;;;14.32;6.72;;;9.50;99.90;;;;;;5045470;28;20029;-88
2024/02/06 02:01:01;;;;;;;18.05;6.90;;;9.50;99.90;;;;;;5039829;28;20056;-88
2024/02/06 02:03:27;;;;;;;14.45;6.32;;;9.50;99.90;;;;;;5036763;28;20120;-88
2024/02/06 02:05:53;;;;;;;14.80;6.30;;;9.50;99.90;;;;;;5043824;28;20103;-88
2024/02/06 02:08:20;;;;;;;15.43;6.00;;;9.50;99.90;;;;;;5043747;28;20033;-89
2024/02/06 02:10:45;;;;;;;22.52;6.50;;;9.50;99.90;;;;;;5047375;28;20234;-87
2024/02/06 02:13:11;;;;;;;16.85;6.10;;;9.50;99.90;;;;;;5043745;28;20506;-89
2024/02/06 02:15:37;;;;;;;16.48;5.30;;;9.50;99.90;;;;;;5048619;28;20029;-88
2024/02/06 02:18:03;;;;;;;10.50;6.05;;;9.50;99.90;;;;;;5042358;28;20468;-88
2024/02/06 02:20:29;;;;;;;22.23;6.43;;;9.50;99.90;;;;;;5038294;28;20029;-88
2024/02/06 02:22:54;;;;;;;15.73;5.78;;;9.50;99.90;;;;;;5038607;28;20612;-87
2024/02/06 02:25:21;;;;;;;20.98;6.40;;;9.50;99.90;;;;;;5035312;28;20545;-88
2024/02/06 02:27:47;;;;;;;15.27;6.63;;;9.50;99.90;;;;;;5033856;28;20655;-89
2024/02/06 02:30:13;;;;;;;10.43;5.35;;;9.50;99.90;;;;;;5037982;28;20028;-88
2024/02/06 02:32:39;;;;;;;17.90;6.30;;;9.50;99.90;;;;;;5038740;28;20041;-88
2024/02/06 02:35:05;;;;;;;13.00;5.85;;;9.50;99.90;;;;;;5041462;28;20052;-89
2024/02/06 02:37:30;;;;;;;15.05;6.15;;;9.50;99.90;;;;;;5037724;28;20052;-88
2024/02/06 02:39:56;;;;;;;28.20;5.90;;;9.50;99.90;;;;;;5032365;28;20387;-88
2024/02/06 02:42:21;;;;;;;11.98;5.43;;;9.50;99.90;;;;;;5040428;28;20036;-88
2024/02/06 02:44:47;;;;;;;12.43;6.07;;;9.50;99.90;;;;;;5042422;28;20017;-90
2024/02/06 02:47:13;;;;;;;12.60;5.20;;;9.50;99.90;;;;;;5051233;28;20017;-88
2024/02/06 02:49:38;;;;;;;9.40;5.15;;;9.50;99.90;;;;;;5040570;28;20490;-90
2024/02/06 02:52:04;;;;;;;12.93;5.25;;;9.50;99.90;;;;;;5036438;28;20041;-88
2024/02/06 02:54:29;;;;;;;10.65;5.10;;;9.50;99.90;;;;;;5037867;28;20123;-89
2024/02/06 02:56:56;;;;;;;13.60;4.88;;;9.50;99.90;;;;;;5030518;28;20022;-89
2024/02/06 02:59:21;;;;;;;13.95;5.40;;;9.50;99.90;;;;;;5041236;28;20029;-88
2024/02/06 03:01:47;;;;;;;10.65;4.40;;;9.50;99.90;;;;;;5039922;28;20032;-90
2024/02/06 03:04:13;;;;;;;10.80;5.10;;;9.50;99.90;;;;;;5039190;28;20030;-88
2024/02/06 03:06:38;;;;;;;8.68;4.30;;;9.50;99.90;;;;;;5052379;28;20025;-89
2024/02/06 03:09:04;;;;;;;10.23;4.40;;;9.50;99.90;;;;;;5042562;28;20021;-88
2024/02/06 03:11:30;;;;;;;9.18;4.22;;;9.50;99.90;;;;;;5034272;28;20026;-88
2024/02/06 03:13:55;;;;;;;11.52;4.38;;;9.50;99.90;;;;;;5036680;28;20014;-88
2024/02/06 03:16:21;;;;;;;9.75;4.43;;;9.50;99.90;;;;;;5044394;28;20096;-89
2024/02/06 03:18:47;;;;;;;9.63;4.45;;;9.50;99.90;;;;;;5036391;28;20022;-88
2024/02/06 03:21:12;;;;;;;9.15;4.28;;;9.50;99.90;;;;;;5045423;28;20025;-88
2024/02/06 03:23:38;;;;;;;11.07;4.30;;;9.50;99.90;;;;;;5034985;28;20043;-88
2024/02/06 03:26:04;;;;;;;12.65;5.18;;;9.50;99.90;;;;;;5048150;28;20095;-88
2024/02/06 03:28:30;;;;;;;12.88;4.97;;;9.50;99.90;;;;;;5028933;28;20049;-88
2024/02/06 03:30:57;;;;;;;19.48;4.82;;;9.50;99.90;;;;;;5042509;28;20455;-87
2024/02/06 03:33:23;;;;;;;17.30;4.82;;;9.40;99.90;;;;;;5039041;28;20041;-89
2024/02/06 03:35:48;;;;;;;12.00;4.80;;;9.50;99.90;;;;;;5040888;28;20052;-86
2024/02/06 03:38:14;;;;;;;9.30;4.30;;;9.50;99.90;;;;;;5041571;28;20033;-87
2024/02/06 03:40:40;;;;;;;12.02;4.22;;;9.50;99.90;;;;;;5034080;28;20032;-88
2024/02/06 03:43:05;;;;;;;9.45;4.35;;;9.40;99.90;;;;;;5050701;28;20025;-89
2024/02/06 03:45:34;;;;;;;9.77;4.65;;;9.40;99.90;;;;;;5043024;28;20032;-87
2024/02/06 03:47:59;;;;;;;8.10;3.85;;;9.50;99.90;;;;;;5048034;28;20022;-88
2024/02/06 03:50:25;;;;;;;6.55;4.18;;;9.50;99.90;;;;;;5043490;28;20479;-88
2024/02/06 03:52:50;;;;;;;11.20;4.28;;;9.40;99.90;;;;;;5036100;28;20101;-87
2024/02/06 03:55:16;;;;;;;11.98;4.18;;;9.50;99.90;;;;;;5040950;28;20020;-89
2024/02/06 03:57:41;;;;;;;8.25;4.10;;;9.50;99.90;;;;;;5041434;28;20037;-88
2024/02/06 04:00:08;;;;;;;13.18;4.50;;;9.40;99.90;;;;;;5039958;28;20083;-88
2024/02/06 04:02:34;;;;;;;13.13;4.18;;;9.50;99.90;;;;;;5035829;28;20104;-87
2024/02/06 04:05:00;;;;;;;5.72;3.53;;;9.50;99.90;;;;;;5035119;28;20113;-89
2024/02/06 04:07:25;;;;;;;8.25;3.95;;;9.50;99.90;;;;;;5034912;28;20025;-87
2024/02/06 04:09:51;;;;;;;11.32;4.60;;;9.40;99.90;;;;;;5050712;28;20044;-87
2024/02/06 04:12:16;;;;;;;16.75;5.05;;;9.40;99.90;;;;;;5039189;28;20033;-88
2024/02/06 04:14:42;;;;;;;10.10;3.72;;;9.40;99.90;;;;;;5039966;28;20376;-88
2024/02/06 04:17:08;;;;;;;10.10;4.45;;;9.40;99.90;;;;;;5034781;28;20029;-89
2024/02/06 04:19:33;;;;;;;13.68;4.55;;;9.40;99.90;;;;;;5038881;28;20029;-86
2024/02/06 04:21:59;;;;;;;12.82;4.68;;;9.40;99.90;;;;;;5036104;28;20029;-89
2024/02/06 04:24:25;;;;;;;12.13;4.47;;;9.40;99.90;;;;;;5043271;28;20025;-87
2024/02/06 04:26:51;;;;;;;12.07;4.82;;;9.40;99.90;;;;;;5046790;28;20021;-87
2024/02/06 04:29:16;;;;;;;13.82;4.40;;;9.40;99.90;;;;;;5032071;28;20021;-87
2024/02/06 04:31:42;;;;;;;15.50;4.90;;;9.40;99.90;;;;;;5039170;28;20475;-88
2024/02/06 04:34:07;;;;;;;7.57;4.18;;;9.40;99.90;;;;;;5043051;28;20529;-90
2024/02/06 04:36:34;;;;;;;10.45;3.83;;;9.40;99.90;;;;;;5044923;28;20096;-88
2024/02/06 04:39:00;;;;;;;10.05;4.68;;;9.40;99.90;;;;;;5044639;28;20021;-88
2024/02/06 04:41:25;;;;;;;6.88;3.95;;;9.40;99.90;;;;;;5036700;28;20027;-88
2024/02/06 04:43:51;;;;;;;10.68;4.35;;;9.40;99.90;;;;;;5038445;28;20029;-88
2024/02/06 04:46:16;;;;;;;11.57;4.47;;;9.40;99.90;;;;;;5037165;28;20105;-87
2024/02/06 04:48:42;;;;;;;13.45;4.22;;;9.40;99.90;;;;;;5039931;28;20049;-88
2024/02/06 04:51:08;;;;;;;7.40;4.28;;;9.40;99.90;;;;;;5037655;28;20436;-89
2024/02/06 04:53:34;;;;;;;7.00;4.10;;;9.40;99.90;;;;;;5044091;28;20025;-88
2024/02/06 04:55:59;;;;;;;12.05;4.45;;;9.40;99.90;;;;;;5045323;28;20017;-87
2024/02/06 04:58:25;;;;;;;10.40;5.13;;;9.40;99.90;;;;;;5039955;28;20040;-87
2024/02/06 05:00:51;;;;;;;13.40;4.53;;;9.40;99.90;;;;;;5042403;28;20076;-88
2024/02/06 05:03:16;;;;;;;11.38;3.63;;;9.40;99.90;;;;;;5037424;28;20464;-87
2024/02/06 05:05:42;;;;;;;7.72;3.95;;;9.40;99.90;;;;;;5040014;28;20032;-87
2024/02/06 05:08:09;;;;;;;7.22;3.78;;;9.40;99.90;;;;;;5036737;28;20507;-88
2024/02/06 05:10:35;;;;;;;10.93;3.70;;;9.40;99.90;;;;;;5041854;28;20083;-87
2024/02/06 05:13:01;;;;;;;8.75;3.53;;;9.40;99.90;;;;;;5035552;28;20032;-88
2024/02/06 05:15:26;;;;;;;15.23;3.97;;;9.40;99.90;;;;;;5035366;28;20647;-89
2024/02/06 05:17:52;;;;;;;10.15;4.10;;;9.40;99.90;;;;;;5034488;28;20048;-87
2024/02/06 05:20:18;;;;;;;7.35;4.05;;;9.40;99.90;;;;;;5030455;28;20030;-88
2024/02/06 05:22:44;;;;;;;13.30;4.35;;;9.40;99.90;;;;;;5036833;28;20055;-89
2024/02/06 05:25:10;;;;;;;13.20;4.47;;;9.40;99.90;;;;;;5038586;28;20435;-88
2024/02/06 05:27:35;;;;;;;6.82;3.72;;;9.40;99.90;;;;;;5038837;28;20029;-88
2024/02/06 05:30:04;;;;;;;9.75;3.83;;;9.40;99.90;;;;;;5055144;28;20079;-87
2024/02/06 05:32:31;;;;;;;7.68;3.17;;;9.40;99.90;;;;;;5030683;28;20083;-88
2024/02/06 05:34:59;;;;;;;8.02;3.95;;;9.40;99.90;;;;;;5037486;28;20480;-88
2024/02/06 05:37:25;;;;;;;11.93;4.10;;;9.30;99.90;;;;;;5036729;28;20029;-89
2024/02/06 05:39:50;;;;;;;8.68;3.88;;;9.30;99.90;;;;;;5043600;28;20025;-88
2024/02/06 05:42:16;;;;;;;10.80;4.70;;;9.30;99.90;;;;;;5037300;28;20025;-88
2024/02/06 05:44:41;;;;;;;7.65;3.83;;;9.30;99.90;;;;;;5037568;28;20515;-89
2024/02/06 05:47:07;;;;;;;15.57;4.25;;;9.30;99.90;;;;;;5039204;28;20051;-88
2024/02/06 05:49:33;;;;;;;12.55;3.80;;;9.30;99.90;;;;;;5038206;28;20022;-87
2024/02/06 05:51:59;;;;;;;10.88;4.07;;;9.30;99.90;;;;;;5040244;28;20494;-89
2024/02/06 05:54:25;;;;;;;7.65;3.53;;;9.30;99.90;;;;;;5046923;28;20021;-88
2024/02/06 05:56:50;;;;;;;12.25;3.47;;;9.30;99.90;;;;;;5039144;28;20021;-88
2024/02/06 05:59:16;;;;;;;8.75;4.32;;;9.30;99.90;;;;;;5032831;28;20078;-89
2024/02/06 06:01:41;;;;;;;11.77;4.00;;;9.30;99.90;;;;;;5038895;28;20028;-87
2024/02/06 06:04:07;;;;;;;12.73;3.53;;;9.30;99.90;;;;;;5045963;28;20027;-90
2024/02/06 06:06:33;;;;;;;7.65;3.55;;;9.30;99.90;;;;;;5038464;28;20013;-88
2024/02/06 06:08:59;;;;;;;8.80;3.38;;;9.30;99.90;;;;;;5036419;28;20029;-88
2024/02/06 06:11:24;;;;;;;11.93;3.80;;;9.30;99.90;;;;;;5046859;28;20013;-87
2024/02/06 06:13:50;;;;;;;8.43;3.38;;;9.30;99.90;;;;;;5039514;28;20391;-90
2024/02/06 06:16:16;;;;;;;11.35;4.10;;;9.30;99.90;;;;;;5038622;28;20029;-87
2024/02/06 06:18:41;;;;;;;7.60;3.53;;;9.30;99.90;;;;;;5037935;28;20050;-88
2024/02/06 06:21:07;;;;;;;9.05;3.30;;;9.30;99.90;;;;;;5040846;28;20025;-88
2024/02/06 06:23:32;;;;;;;7.25;3.38;;;9.30;99.90;;;;;;5039389;28;20095;-89
2024/02/06 06:25:59;;;;;;;5.82;3.40;;;9.30;99.90;;;;;;5042176;28;20377;-87
2024/02/06 06:28:24;;;;;;;7.90;3.63;;;9.30;99.90;;;;;;5034491;28;20052;-86
2024/02/06 06:30:51;;;;;;;11.20;3.97;;;9.30;99.90;;;;;;5035861;28;20021;-87
2024/02/06 06:33:18;;;;;;;16.27;4.45;;;9.30;99.90;;;;;;5033444;28;20033;-88
2024/02/06 06:35:43;;;;;;;9.80;3.60;;;9.20;99.90;;;;;;5041227;28;20021;-87
2024/02/06 06:38:09;;;;;;;7.70;3.10;;;9.20;99.90;;;;;;5038988;28;20036;-87
2024/02/06 06:40:35;;;;;;;7.47;3.70;;;9.20;99.90;;;;;;5044010;28;20075;-87
2024/02/06 06:43:00;;;;;;;5.28;3.33;;;9.20;99.90;;;;;;5039312;28;20086;-87
2024/02/06 06:45:27;;;;;;;8.88;3.42;;;9.20;99.90;;;;;;5048751;28;20395;-87
2024/02/06 06:47:53;;;;;;;7.82;3.42;;;9.20;99.90;;;;;;5039041;28;20052;-87
2024/02/06 06:50:19;;;;;;;10.88;3.88;;;9.20;99.90;;;;;;5035292;28;20460;-88
2024/02/06 06:52:44;;;;;;;12.85;3.67;;;9.20;99.90;;;;;;5046756;28;20510;-89
2024/02/06 06:55:10;;;;;;;11.52;3.35;;;9.20;99.90;;;;;;5039605;28;20021;-90
2024/02/06 06:57:42;;;;;;;16.35;4.35;;;9.20;99.90;;;;;;5045660;28;20021;-88
2024/02/06 07:00:11;;;;;;;8.90;2.88;;;9.20;99.90;;;;;;5042310;28;20148;-88
2024/02/06 07:02:38;;;;;;;17.03;3.37;;;9.20;99.90;;;;;;5029705;28;20056;-88
2024/02/06 07:05:06;;;;;;;8.75;3.25;;;9.20;99.90;;;;;;5038911;28;20030;-88
2024/02/06 07:07:32;;;;;;;7.65;3.08;;;9.20;99.90;;;;;;5038467;28;20020;-87
2024/02/06 07:09:58;;;;;;;7.28;3.47;;;9.30;99.90;;;;;;5039965;28;20099;-87
2024/02/06 07:12:25;;;;;;;8.00;3.05;;;9.20;99.90;;;;;;5042066;28;20025;-88
2024/02/06 07:14:50;;;;;;;10.93;3.63;;;9.30;99.90;;;;;;5026971;28;20032;-88
2024/02/06 07:17:17;;;;;;;13.80;4.43;;;9.20;99.90;;;;;;5043058;28;20395;-86
2024/02/06 07:19:43;;;;;;;12.52;4.75;;;9.20;99.90;;;;;;5038865;28;20021;-88
2024/02/06 07:22:09;;;;;;;13.40;3.70;;;9.30;99.90;;;;;;5040040;28;20056;-89
2024/02/06 07:24:34;;;;;;;5.53;2.72;;;9.20;99.90;;;;;;5035506;28;20021;-86
2024/02/06 07:27:00;;;;;;;10.23;3.55;;;9.30;99.90;;;;;;5042654;28;20019;-87
2024/02/06 07:29:26;;;;;;;6.57;3.20;;;9.20;99.90;;;;;;5038697;28;20067;-89
2024/02/06 07:31:52;;;;;;;9.07;4.15;;;9.30;99.90;;;;;;5037485;28;20029;-86
2024/02/06 07:34:20;;;;;;;7.35;3.28;;;9.30;99.90;;;;;;5042107;28;20542;-87
2024/02/06 07:36:46;;;;;;;14.60;3.78;;;9.30;99.90;;;;;;5041038;28;20021;-86
2024/02/06 07:39:12;;;;;;;10.43;3.42;;;9.30;99.90;;;;;;5044540;28;20032;-87
2024/02/06 07:41:38;;;;;;;10.10;3.60;;;9.30;99.90;;;;;;5042591;28;20021;-87
2024/02/06 07:44:04;;;;;;;9.02;3.10;;;9.30;99.90;;;;;;5043185;28;20049;-86
2024/02/06 07:46:30;;;;;;;8.70;3.72;;;9.30;99.90;;;;;;5044549;28;20025;-86
2024/02/06 07:48:56;;;;;;;8.48;3.22;;;9.30;99.90;;;;;;5038000;28;20040;-87
2024/02/06 07:51:25;;;;;;;11.35;3.60;;;9.30;99.90;;;;;;5042426;28;20474;-87
2024/02/06 07:53:51;;;;;;;11.57;4.03;;;9.40;99.90;;;;;;5040803;28;20024;-87
2024/02/06 07:56:20;;;;;;;6.47;3.45;;;9.40;99.90;;;;;;5041619;28;20022;-88
2024/02/06 07:58:48;;;;;;;10.98;3.38;;;9.40;99.90;;;;;;5037463;28;20372;-86
2024/02/06 08:01:15;;;;;;;4.45;3.20;;;9.40;99.90;;;;;;5037791;28;20029;-87
2024/02/06 08:03:41;;;;;;;8.55;3.25;;;9.40;99.90;;;;;;5044042;28;20031;-88
2024/02/06 08:06:07;;;;;;;13.50;3.88;;;9.40;99.90;;;;;;5038556;28;20022;-88
2024/02/06 08:08:32;;;;;;;7.57;3.97;;;9.40;99.90;;;;;;5036731;28;20021;-86
2024/02/06 08:10:59;;;;;;;7.10;3.88;;;9.50;99.90;;;;;;5039963;28;20044;-85
2024/02/06 08:13:25;;;;;;;7.45;3.13;;;9.50;99.90;;;;;;5038822;28;20096;-84
2024/02/06 08:15:50;;;;;;;6.80;3.53;;;9.50;99.90;;;;;;5039218;28;20032;-85
2024/02/06 08:18:16;;;;;;;11.93;4.00;;;9.50;99.90;;;;;;5040119;28;20083;-84
2024/02/06 08:20:41;;;;;;;9.07;3.92;;;9.50;99.90;;;;;;5037278;28;20025;-87
2024/02/06 08:23:10;;;;;;;13.38;4.10;;;9.60;99.90;;;;;;5035011;28;20060;-85
2024/02/06 08:25:36;;;;;;;10.35;3.55;;;9.60;99.90;;;;;;5032811;28;20506;-85
2024/02/06 08:28:02;;;;;;;7.07;3.67;;;9.60;99.90;;;;;;5039088;28;20037;-85
2024/02/06 08:30:28;;;;;;;12.15;3.53;;;9.70;99.90;;;;;;5043056;28;20021;-86
2024/02/06 08:32:53;;;;;;;8.10;3.45;;;9.70;99.90;;;;;;5038453;28;20503;-86
2024/02/06 08:35:19;;;;;;;9.30;4.20;;;9.70;99.90;;;;;;5046192;28;20029;-91
2024/02/06 08:37:45;;;;;;;7.47;3.75;;;9.80;99.90;;;;;;5037404;28;20169;-86
2024/02/06 08:40:13;;;;;;;10.32;3.83;;;9.80;99.90;;;;;;5040357;28;20036;-86
2024/02/06 08:42:38;;;;;;;9.73;4.00;;;9.80;99.90;;;;;;5042290;28;20010;-85
2024/02/06 08:45:04;;;;;;;11.65;4.10;;;9.80;99.90;;;;;;5042919;28;20036;-84
2024/02/06 08:47:30;;;;;;;9.93;4.22;;;9.90;99.90;;;;;;5036438;28;20525;-86
2024/02/06 08:49:55;;;;;;;6.22;3.63;;;9.90;99.90;;;;;;5045891;28;20017;-86
2024/02/06 08:52:21;;;;;;;10.27;4.03;;;10.00;99.90;;;;;;5033473;28;20029;-87
2024/02/06 08:54:47;;;;;;;9.95;4.50;;;10.10;99.90;;;;;;5035892;28;20025;-86
2024/02/06 08:57:12;;;;;;;12.43;3.65;;;10.20;99.90;;;;;;5038001;28;20079;-86
2024/02/06 08:59:38;;;;;;;10.10;3.90;;;10.30;99.90;;;;;;5035939;28;20063;-87
2024/02/06 09:02:04;;;;;;;9.30;5.20;;;10.40;99.90;;;;;;5032449;28;20037;-86
2024/02/06 09:04:30;;;;;;;9.10;3.95;;;10.50;99.90;;;;;;5037087;28;20059;-87
2024/02/06 09:06:56;;;;;;;10.45;3.97;;;10.60;99.90;;;;;;5033431;28;20021;-86
2024/02/06 09:09:22;;;;;;;9.60;4.22;;;10.60;99.90;;;;;;5037010;28;20068;-84
2024/02/06 09:11:48;;;;;;;6.93;3.70;;;10.60;99.90;;;;;;5036583;28;20075;-85
2024/02/06 09:14:14;;;;;;;8.77;4.55;;;10.50;99.90;;;;;;5039840;28;20026;-87
2024/02/06 09:16:39;;;;;;;12.15;4.30;;;10.50;99.90;;;;;;5036829;28;20112;-86
2024/02/06 09:19:05;;;;;;;6.43;3.70;;;10.40;99.90;;;;;;5039295;28;20112;-87
2024/02/06 09:21:32;;;;;;;8.90;4.25;;;10.40;99.90;;;;;;5037659;28;20024;-85
2024/02/06 09:23:58;;;;;;;13.35;4.20;;;10.30;99.90;;;;;;5034952;28;20071;-85
2024/02/06 09:26:24;;;;;;;9.80;3.65;;;10.30;99.90;;;;;;5035236;28;20034;-85
2024/02/06 09:28:49;;;;;;;7.35;3.55;;;10.10;99.90;;;;;;5038786;28;20021;-86
2024/02/06 09:31:15;;;;;;;10.95;4.15;;;10.00;99.90;;;;;;5036140;28;20032;-86
2024/02/06 09:33:42;;;;;;;8.15;3.83;;;10.00;99.90;;;;;;5037892;28;20062;-86
2024/02/06 09:36:08;;;;;;;7.55;3.90;;;9.90;99.90;;;;;;5034464;28;20040;-88
2024/02/06 09:38:33;;;;;;;6.28;3.58;;;9.90;99.90;;;;;;5036657;28;20043;-87
2024/02/06 09:41:00;;;;;;;6.43;3.75;;;9.90;99.90;;;;;;5035310;28;20104;-86
2024/02/06 09:43:26;;;;;;;8.23;3.65;;;9.80;99.90;;;;;;5038578;28;20479;-86
2024/02/06 09:45:52;;;;;;;6.18;3.10;;;9.70;99.90;;;;;;5029374;28;20819;-85
2024/02/06 09:48:18;;;;;;;10.02;4.05;;;9.70;99.90;;;;;;5036589;28;20018;-86
2024/02/06 09:50:44;;;;;;;8.77;3.33;;;9.70;99.90;;;;;;5038534;28;20021;-86
2024/02/06 09:53:10;;;;;;;8.43;3.83;;;9.60;99.90;;;;;;5035177;28;20033;-85
2024/02/06 09:55:37;;;;;;;8.68;2.92;;;9.60;99.90;;;;;;5039066;28;20097;-89
2024/02/06 09:58:04;;;;;;;8.90;3.45;;;9.60;99.90;;;;;;5035060;28;20026;-87
2024/02/06 10:00:31;;;;;;;5.47;2.80;;;9.60;99.90;;;;;;5031787;28;20014;-88
2024/02/06 10:03:00;;;;;;;7.70;4.07;;;9.50;99.90;;;;;;5040697;28;20028;-88
2024/02/06 10:05:31;;;;;;;8.07;3.83;;;9.60;99.90;;;;;;5040727;28;20029;-89
2024/02/06 10:07:57;;;;;;;8.48;3.63;;;9.60;99.90;;;;;;5035695;28;20347;-87
2024/02/06 10:10:24;;;;;;;5.28;2.53;;;9.50;99.90;;;;;;5046640;28;20028;-87
2024/02/06 10:12:50;;;;;;;6.63;2.88;;;9.50;99.90;;;;;;5047155;28;20083;-89
2024/02/06 10:15:21;;;;;;;6.80;3.08;;;9.50;99.90;;;;;;5044497;28;20021;-89
2024/02/06 10:17:47;;;;;;;4.82;2.63;;;9.50;99.90;;;;;;5033866;28;20021;-87
2024/02/06 10:20:13;;;;;;;2.92;1.73;;;9.50;99.90;;;;;;5036477;28;20140;-82
2024/02/06 10:22:39;;;;;;;3.10;1.65;;;12.00;99.90;;;;;;5040432;28;20555;-85
2024/02/06 10:25:08;;;;;;;3.97;1.92;;;12.40;99.90;;;;;;5041221;28;20025;-85
2024/02/06 10:27:34;;;;;;;3.28;2.25;;;11.50;99.90;;;;;;5041443;28;20543;-85
2024/02/06 10:30:06;;;;;;;8.38;2.50;;;10.80;99.90;;;;;;5039619;28;20051;-85
2024/02/06 10:32:33;;;;;;;6.40;2.25;;;10.30;99.90;;;;;;5031288;28;20039;-85
2024/02/06 10:35:03;;;;;;;2.97;2.00;;;10.10;99.90;;;;;;5042091;28;20070;-85
2024/02/06 10:37:28;;;;;;;4.22;2.58;;;9.90;99.90;;;;;;5024192;28;20033;-84
2024/02/06 10:39:54;;;;;;;10.13;2.50;;;9.80;99.90;;;;;;5043755;28;20037;-86
2024/02/06 10:42:20;;;;;;;4.32;2.47;;;9.70;99.90;;;;;;5039948;28;20029;-86
2024/02/06 10:44:46;;;;;;;5.05;2.55;;;9.70;99.90;;;;;;5033883;28;20017;-85
2024/02/06 10:47:15;;;;;;;10.25;2.42;;;9.70;99.90;;;;;;5037183;28;20018;-83
2024/02/06 10:49:41;;;;;;;13.98;2.97;;;9.60;99.90;;;;;;5034307;28;20020;-85
2024/02/06 10:52:07;;;;;;;6.60;2.28;;;9.50;99.90;;;;;;5040044;28;20022;-86
2024/02/06 10:54:34;;;;;;;5.70;3.15;;;9.50;99.90;;;;;;5032671;28;20030;-86
2024/02/06 10:57:06;;;;;;;4.00;2.72;;;9.50;99.90;;;;;;5040810;28;20029;-85
2024/02/06 10:59:48;;;;;;;8.55;2.58;;;9.50;99.90;;;;;;5043018;28;20022;-85
2024/02/06 11:02:24;;;;;;;4.05;2.47;;;9.50;99.90;;;;;;5041205;28;20031;-85
2024/02/06 11:05:20;;;;;;;5.18;2.80;;;9.50;99.90;;;;;;5047307;28;20112;-87
2024/02/06 11:07:53;;;;;;;8.48;2.78;;;9.50;99.90;;;;;;5037319;28;20476;-86
2024/02/06 11:10:22;;;;;;;4.28;2.30;;;9.50;99.90;;;;;;5037610;28;20068;-85
2024/02/06 11:12:59;;;;;;;5.55;2.08;;;9.50;99.90;;;;;;5044115;28;20017;-87
2024/02/06 11:15:25;;;;;;;4.53;2.38;;;9.50;99.90;;;;;;5036697;28;20028;-86
2024/02/06 11:17:52;;;;;;;6.70;2.15;;;9.50;99.90;;;;;;5039658;28;20025;-85
2024/02/06 11:20:21;;;;;;;7.50;2.80;;;9.50;99.90;;;;;;5033300;28;20758;-87
2024/02/06 11:22:48;;;;;;;8.35;3.08;;;9.50;99.90;;;;;;5038771;28;20036;-86
2024/02/06 11:25:17;;;;;;;8.02;3.03;;;9.60;99.90;;;;;;5035920;28;20084;-85
2024/02/06 11:27:44;;;;;;;6.78;2.90;;;9.60;99.90;;;;;;5039351;28;20024;-86
2024/02/06 11:30:11;;;;;;;4.55;2.35;;;9.60;99.90;;;;;;5035736;28;20017;-86
2024/02/06 11:32:37;;;;;;;7.50;2.55;;;9.60;99.90;;;;;;5038235;28;20037;-86
2024/02/06 11:35:03;;;;;;;5.28;2.55;;;9.60;99.90;;;;;;5041666;28;20125;-86
2024/02/06 11:37:30;;;;;;;6.05;3.00;;;9.60;99.90;;;;;;5037470;28;20037;-87
2024/02/06 11:40:28;;;;;;;9.25;2.10;;;9.60;99.90;;;;;;5030723;28;20026;-87
2024/02/06 11:43:05;;;;;;;4.93;2.28;;;9.60;99.90;;;;;;5041284;28;20113;-87
2024/02/06 11:45:32;;;;;;;3.28;2.10;;;9.60;99.90;;;;;;5029806;28;20129;-85
2024/02/06 11:48:00;;;;;;;4.25;2.33;;;9.70;99.90;;;;;;5013752;28;20385;-85
2024/02/06 11:50:26;;;;;;;5.28;2.20;;;9.70;99.90;;;;;;5019124;28;20099;-87
2024/02/06 11:53:03;;;;;;;4.13;2.03;;;9.60;99.90;;;;;;5026165;28;20136;-85
2024/02/06 11:55:29;;;;;;;5.97;1.77;;;9.60;99.90;;;;;;5018165;28;20091;-85
2024/02/06 11:57:59;;;;;;;4.60;1.92;;;9.60;99.90;;;;;;5025326;28;20107;-86
2024/02/06 12:00:29;;;;;;;7.15;2.05;;;9.60;99.90;;;;;;5019290;28;20051;-85
2024/02/06 12:02:55;;;;;;;;;;;9.60;99.90;;;;;;5026089;28;20041;-86
2024/02/06 12:05:21;;;;;;;3.42;1.80;;;9.60;99.90;;;;;;5026840;28;19912;-86
2024/02/06 12:07:54;;;;;;;4.30;1.83;;;9.60;99.90;;;;;;5037812;28;20098;-86
2024/02/06 12:10:29;;;;;;;8.35;1.70;;;9.60;99.90;;;;;;5038765;28;20022;-86
2024/02/06 12:13:00;;;;;;;2.25;1.58;;;9.60;99.90;;;;;;5024528;28;20130;-85
2024/02/06 12:15:27;;;;;;;5.32;1.98;;;9.70;99.90;;;;;;5029316;28;20144;-86
2024/02/06 12:17:53;;;;;;;3.63;2.03;;;9.70;99.90;;;;;;5017581;28;20048;-84
2024/02/06 12:20:19;;;;;;;6.57;1.90;;;9.70;99.90;;;;;;5026078;28;20585;-87
2024/02/06 12:22:59;;;;;;;4.32;1.60;;;9.70;99.90;;;;;;5013309;28;20120;-87
2024/02/06 12:25:25;;;;;;;3.93;1.53;;;9.70;99.90;;;;;;5022918;28;20507;-85
2024/02/06 12:28:08;;;;;;;3.90;1.90;;;9.70;99.90;;;;;;5024548;28;20123;-86
2024/02/06 12:30:34;;;;;;;3.83;1.90;;;9.70;99.90;;;;;;5024787;28;20041;-86
2024/02/06 12:33:01;;;;;;;4.05;1.73;;;9.80;99.90;;;;;;5027082;28;20487;-85
2024/02/06 12:35:33;;;;;;;3.45;1.83;;;9.80;99.90;;;;;;5023300;28;20164;-86
2024/02/06 12:37:59;;;;;;;5.75;1.45;;;9.80;99.90;;;;;;5029401;28;20028;-85
2024/02/06 12:40:29;;;;;;;5.82;1.83;;;9.70;99.90;;;;;;5027402;28;20483;-85
2024/02/06 12:42:59;;;;;;;4.67;1.23;;;9.80;99.90;;;;;;5039694;28;20155;-86
2024/02/06 12:45:26;;;;;;;5.22;1.40;;;9.80;99.90;;;;;;5026674;28;20072;-86
2024/02/06 12:47:52;;;;;;;5.10;1.50;;;9.80;99.90;;;;;;5020521;28;20127;-86